Time;durP1;ratioP1;P1;durP2;ratioP2;P2;SDS_P1;SDS_P2;PMS_P1;PMS_P2;Temp;Humidity;BMP_temperature;BMP_pressure;BME280_temperature;BME280_humidity;BME280_pressure;Samples;Min_cycle;Max_cycle;Signal;HPM_P1;HPM_P2
2023/05/03 00:02:19;;;;;;;111.97;37.25;;;;;;;16.94;52.35;93956.53;4964137;28;20031;-92
2023/05/03 00:05:00;;;;;;;113.88;37.40;;;;;;;16.95;52.48;93955.28;4949273;29;20039;-92
2023/05/03 00:07:25;;;;;;;124.28;38.60;;;;;;;16.93;52.55;93948.81;4956499;28;20131;-92
2023/05/03 00:09:52;;;;;;;96.70;36.83;;;;;;;16.95;52.51;93952.56;4973604;28;20031;-91
2023/05/03 00:12:18;;;;;;;108.90;39.15;;;;;;;16.91;52.78;93949.31;4972999;28;20117;-92
2023/05/03 00:14:55;;;;;;;108.25;39.20;;;;;;;16.93;52.68;93938.66;4956605;29;20039;-92
2023/05/03 00:17:29;;;;;;;110.97;37.53;;;;;;;16.93;52.55;93935.16;4955286;28;20039;-92
2023/05/03 00:20:08;;;;;;;99.45;35.33;;;;;;;16.92;53.02;93936.41;4939187;29;20039;-92
2023/05/03 00:22:35;;;;;;;107.60;36.95;;;;;;;16.93;52.63;93935.16;4947274;28;20046;-92
2023/05/03 00:25:01;;;;;;;101.78;38.17;;;;;;;16.92;53.08;93947.31;4987210;28;20046;-93
2023/05/03 00:27:28;;;;;;;100.82;37.17;;;;;;;16.92;53.16;93939.88;4931709;28;20130;-92
2023/05/03 00:30:00;;;;;;;102.85;36.55;;;;;;;16.93;52.53;93941.38;4951947;28;20040;-92
2023/05/03 00:32:25;;;;;;;99.18;36.55;;;;;;;16.90;52.55;93939.63;4933628;28;20039;-92
2023/05/03 00:34:55;;;;;;;109.60;36.25;;;;;;;16.89;52.89;93929.94;4951207;28;20039;-91
2023/05/03 00:37:22;;;;;;;97.45;34.50;;;;;;;16.91;52.89;93932.91;4941104;28;20144;-92
2023/05/03 00:39:51;;;;;;;94.70;35.25;;;;;;;16.90;52.88;93925.97;4952503;29;20038;-91
2023/05/03 00:42:26;;;;;;;110.93;37.42;;;;;;;16.91;52.33;93927.47;4951861;28;20046;-92
2023/05/03 00:44:53;;;;;;;88.97;33.67;;;;;;;16.89;52.56;93924.47;4951757;28;20639;-92
2023/05/03 00:47:35;;;;;;;105.68;35.33;;;;;;;16.90;52.85;93927.94;4950610;28;20047;-92
2023/05/03 00:50:03;;;;;;;91.53;34.53;;;;;;;16.91;52.71;93929.44;4951252;28;20055;-92
2023/05/03 00:52:38;;;;;;;101.90;33.17;;;;;;;16.92;52.74;93928.97;4953932;28;20042;-92
2023/05/03 00:55:04;;;;;;;96.53;34.15;;;;;;;16.91;52.89;93926.72;4954737;28;20047;-91
2023/05/03 00:57:31;;;;;;;95.93;33.63;;;;;;;16.90;52.64;93923.22;4939974;29;20035;-92
2023/05/03 01:00:09;;;;;;;89.72;35.10;;;;;;;16.92;52.48;93928.22;4983883;28;20039;-92
2023/05/03 01:02:37;;;;;;;103.03;35.00;;;;;;;16.89;52.78;93927.19;4955205;29;20043;-92
2023/05/03 01:05:06;;;;;;;87.13;34.50;;;;;;;16.88;52.91;93931.19;4944370;29;20039;-93
2023/05/03 01:07:59;;;;;;;89.03;33.20;;;;;;;16.90;52.50;93919.75;4935664;29;20043;-92
2023/05/03 01:11:03;;;;;;;77.55;31.30;;;;;;;16.91;52.33;93934.91;4967368;28;20499;-92
2023/05/03 01:14:08;;;;;;;93.90;33.05;;;;;;;16.90;52.69;93928.69;4875201;29;20114;-91
2023/05/03 01:16:48;;;;;;;80.25;32.85;;;;;;;16.89;52.70;93929.94;4875015;29;20037;-92
2023/05/03 01:19:43;;;;;;;88.00;32.75;;;;;;;16.88;52.62;93933.91;4875374;29;20052;-92
2023/05/03 01:22:46;;;;;;;89.47;33.58;;;;;;;16.87;52.50;93924.22;4860331;29;20059;-93
2023/05/03 01:25:12;;;;;;;93.25;33.55;;;;;;;16.88;52.62;93925.72;4879811;29;20041;-92
2023/05/03 01:27:48;;;;;;;75.50;30.33;;;;;;;16.86;52.88;93922.75;4865964;29;20045;-92
2023/05/03 01:30:27;;;;;;;81.28;30.50;;;;;;;16.86;52.51;93927.44;4877720;29;20133;-92
2023/05/03 01:33:01;;;;;;;79.65;32.38;;;;;;;16.87;52.56;93924.22;4868403;29;20037;-92
2023/05/03 01:36:00;;;;;;;78.93;29.48;;;;;;;16.90;52.48;93927.94;4896504;29;20037;-91
2023/05/03 01:38:36;;;;;;;84.82;32.78;;;;;;;16.87;52.86;93928.94;4896907;29;20029;-93
2023/05/03 01:41:27;;;;;;;90.53;32.40;;;;;;;16.86;52.71;93927.44;4888442;29;20052;-92
2023/05/03 01:43:53;;;;;;;79.17;29.47;;;;;;;16.84;52.54;93921.72;4864125;29;20037;-91
2023/05/03 01:46:19;;;;;;;92.53;32.55;;;;;;;16.85;52.83;93934.91;4862665;29;20053;-92
2023/05/03 01:48:46;;;;;;;80.30;29.10;;;;;;;16.84;52.27;93935.38;4899338;28;20044;-91
2023/05/03 01:51:21;;;;;;;81.25;30.20;;;;;;;16.86;52.53;93932.91;4971465;28;20032;-92
2023/05/03 01:53:52;;;;;;;77.13;30.02;;;;;;;16.86;52.77;93939.13;4983757;28;20036;-91
2023/05/03 01:56:18;;;;;;;75.82;30.02;;;;;;;16.85;52.59;93926.69;4974033;28;20024;-92
2023/05/03 01:58:52;;;;;;;84.15;28.60;;;;;;;16.85;52.65;93929.44;4947346;29;20028;-92
2023/05/03 02:01:19;;;;;;;74.00;29.15;;;;;;;16.84;52.60;93927.94;4930415;28;20036;-92
2023/05/03 02:03:47;;;;;;;75.47;30.48;;;;;;;16.87;52.57;93931.69;4939403;29;20050;-92
2023/05/03 02:06:13;;;;;;;71.50;27.77;;;;;;;16.85;52.58;93926.69;4938222;29;20496;-93
2023/05/03 02:08:45;;;;;;;71.68;30.17;;;;;;;16.86;52.52;93930.19;4955577;29;20040;-92
2023/05/03 02:11:24;;;;;;;69.43;29.23;;;;;;;16.86;52.74;93922.00;4938872;28;20035;-91
2023/05/03 02:14:10;;;;;;;78.72;29.65;;;;;;;16.86;52.87;93935.66;4936036;29;20099;-92
2023/05/03 02:16:48;;;;;;;73.45;27.13;;;;;;;16.85;52.72;93934.16;4958287;29;20039;-92
2023/05/03 02:19:29;;;;;;;73.40;28.52;;;;;;;16.85;52.92;93932.16;4957572;28;20044;-93
2023/05/03 02:21:57;;;;;;;83.63;29.15;;;;;;;16.85;52.64;93934.16;4955512;28;20035;-92
2023/05/03 02:24:23;;;;;;;68.70;26.75;;;;;;;16.86;52.84;93938.38;4970169;28;20055;-92
2023/05/03 02:26:48;;;;;;;76.57;28.45;;;;;;;16.85;52.54;93932.16;4959060;29;20051;-92
2023/05/03 02:29:14;;;;;;;79.35;28.15;;;;;;;16.86;51.91;93925.47;4929911;29;20048;-92
2023/05/03 02:31:40;;;;;;;64.20;26.88;;;;;;;16.84;52.60;93932.66;4952320;29;20036;-92
2023/05/03 02:34:15;;;;;;;70.82;27.00;;;;;;;16.84;52.68;93927.19;4935841;29;20044;-91
2023/05/03 02:36:49;;;;;;;70.65;26.92;;;;;;;16.84;52.64;93936.13;4935865;29;20044;-93
2023/05/03 02:39:15;;;;;;;71.50;26.48;;;;;;;16.84;52.34;93938.13;4950070;28;20063;-91
2023/05/03 02:41:44;;;;;;;68.65;27.17;;;;;;;16.85;52.31;93940.34;4955098;29;20035;-91
2023/05/03 02:44:22;;;;;;;64.65;26.30;;;;;;;16.83;52.65;93937.38;4953936;28;20036;-92
2023/05/03 02:46:57;;;;;;;67.15;26.20;;;;;;;16.82;52.26;93940.56;4938421;29;20043;-93
2023/05/03 02:49:31;;;;;;;69.05;27.73;;;;;;;16.81;52.23;93939.81;4941299;28;20072;-92
2023/05/03 02:51:57;;;;;;;71.30;25.52;;;;;;;16.83;52.04;93942.06;4954681;28;20038;-92
2023/05/03 02:54:25;;;;;;;58.45;25.08;;;;;;;16.83;52.55;93939.34;4954903;28;20048;-92
2023/05/03 02:56:57;;;;;;;61.85;25.25;;;;;;;16.84;52.64;93938.84;4955488;28;20052;-92
2023/05/03 02:59:57;;;;;;;64.55;26.13;;;;;;;16.83;52.16;93942.81;4938156;28;20055;-92
2023/05/03 03:02:32;;;;;;;59.05;26.00;;;;;;;16.85;52.49;93942.34;4880080;29;20052;-92
2023/05/03 03:04:59;;;;;;;63.28;23.13;;;;;;;16.83;52.32;93936.63;4880917;29;20045;-94
2023/05/03 03:07:40;;;;;;;60.65;26.05;;;;;;;16.83;52.47;93942.06;4864812;29;20041;-92
2023/05/03 03:10:08;;;;;;;69.97;25.65;;;;;;;16.83;52.28;93944.81;4851078;29;20033;-91
2023/05/03 03:12:44;;;;;;;57.83;23.88;;;;;;;16.83;52.41;93947.53;4849813;29;20040;-92
2023/05/03 03:15:22;;;;;;;61.25;24.30;;;;;;;16.82;52.36;93949.50;4862760;29;20057;-92
2023/05/03 03:17:48;;;;;;;60.58;24.80;;;;;;;16.81;52.37;93948.03;4846824;29;20026;-92
2023/05/03 03:20:15;;;;;;;61.83;24.25;;;;;;;16.85;52.05;93951.28;4822001;29;20056;-92
2023/05/03 03:22:44;;;;;;;46.47;21.27;;;;;;;16.90;52.10;93950.53;4878257;29;20025;-92
2023/05/03 03:25:11;;;;;;;62.67;23.95;;;;;;;16.84;52.52;93955.25;4877663;29;20073;-91
2023/05/03 03:27:45;;;;;;;64.28;24.52;;;;;;;16.81;52.11;93956.22;4861623;29;20049;-92
2023/05/03 03:30:10;;;;;;;55.80;23.77;;;;;;;16.82;52.20;93952.25;4868701;29;20090;-90
2023/05/03 03:32:36;;;;;;;45.50;19.10;;;;;;;16.83;51.33;93953.00;4856336;29;20021;-92
2023/05/03 03:35:01;;;;;;;35.67;17.30;;;;;;;16.55;52.12;93956.25;4866944;29;20149;-90
2023/05/03 03:37:27;;;;;;;71.38;38.22;;;;;;;16.43;51.84;93960.88;4896804;28;20072;-89
2023/05/03 03:39:52;;;;;;;74.18;43.95;;;;;;;16.38;52.19;93967.03;4903299;29;20496;-90
2023/05/03 03:42:18;;;;;;;43.22;24.85;;;;;;;16.44;51.45;93969.81;4932305;28;20035;-90
2023/05/03 03:44:44;;;;;;;55.63;36.88;;;;;;;16.40;52.22;93972.03;4907190;29;20141;-92
2023/05/03 03:47:09;;;;;;;105.32;65.85;;;;;;;16.52;52.09;93976.31;4916228;28;20032;-92
2023/05/03 03:49:35;;;;;;;65.10;35.80;;;;;;;16.49;51.61;93968.34;4899084;29;20057;-89
2023/05/03 03:52:00;;;;;;;72.10;35.08;;;;;;;16.60;51.67;93974.66;4915678;29;20118;-91
2023/05/03 03:54:26;;;;;;;50.67;25.75;;;;;;;16.72;51.83;93967.31;4941979;28;20083;-90
2023/05/03 03:56:52;;;;;;;228.02;53.58;;;;;;;16.71;51.33;93974.75;4941964;29;20154;-89
2023/05/03 03:59:18;;;;;;;245.00;66.20;;;;;;;16.66;51.22;93978.22;4914974;28;20044;-94
2023/05/03 04:01:43;;;;;;;166.10;53.50;;;;;;;16.63;50.98;93971.00;4946569;28;20047;-93
2023/05/03 04:04:17;;;;;;;146.85;51.05;;;;;;;16.57;50.78;93969.41;4931856;28;20414;-90
2023/05/03 04:06:42;;;;;;;142.55;54.20;;;;;;;16.54;50.65;93967.66;4929725;28;20039;-91
2023/05/03 04:09:08;;;;;;;182.65;63.58;;;;;;;16.46;50.11;93968.09;4905356;28;20058;-90
2023/05/03 04:11:33;;;;;;;131.18;46.70;;;;;;;16.46;49.94;93980.97;4931887;28;20295;-91
2023/05/03 04:14:01;;;;;;;110.38;45.78;;;;;;;16.58;50.60;93968.19;4924196;29;20066;-93
2023/05/03 04:16:27;;;;;;;127.57;49.58;;;;;;;16.55;50.25;93974.59;4880660;29;20051;-93
2023/05/03 04:18:52;;;;;;;131.73;49.40;;;;;;;16.59;50.40;93977.88;4890791;29;20037;-94
2023/05/03 04:21:18;;;;;;;106.45;43.70;;;;;;;16.64;50.62;93986.13;4846462;29;20053;-95
2023/05/03 04:23:44;;;;;;;119.10;45.83;;;;;;;16.61;50.49;93978.88;4865609;29;20043;-93
2023/05/03 04:26:10;;;;;;;127.93;46.67;;;;;;;16.77;50.64;93991.19;4885418;29;20420;-93
2023/05/03 04:28:37;;;;;;;142.57;53.40;;;;;;;16.81;50.49;93985.50;4896444;29;20047;-89
2023/05/03 04:31:05;;;;;;;164.95;56.15;;;;;;;16.76;50.59;93990.44;4905095;29;20970;-91
2023/05/03 04:33:31;;;;;;;126.45;50.25;;;;;;;16.69;50.17;93998.31;4888877;29;20570;-90
2023/05/03 04:35:56;;;;;;;127.28;49.55;;;;;;;16.64;50.15;93991.59;4889728;29;20072;-93
2023/05/03 04:38:31;;;;;;;110.57;48.17;;;;;;;16.66;50.17;93994.59;4880462;29;21227;-92
2023/05/03 04:40:57;;;;;;;121.07;49.38;;;;;;;16.72;50.38;93994.59;4862444;29;20143;-92
2023/05/03 04:43:22;;;;;;;153.40;58.13;;;;;;;16.73;50.30;94007.03;4861604;29;20548;-93
2023/05/03 04:45:48;;;;;;;135.00;54.22;;;;;;;16.73;50.93;94002.31;4877947;29;20033;-90
2023/05/03 04:48:13;;;;;;;160.38;58.55;;;;;;;16.76;50.55;94001.34;4917671;28;20055;-90
2023/05/03 04:50:39;;;;;;;145.23;51.20;;;;;;;16.80;50.75;94003.84;4938494;28;20047;-93
2023/05/03 04:53:06;;;;;;;183.82;55.33;;;;;;;16.77;50.90;94008.31;4932103;28;20032;-90
2023/05/03 04:55:32;;;;;;;180.60;53.50;;;;;;;16.90;50.28;94013.34;4930944;29;20060;-93
2023/05/03 04:57:58;;;;;;;113.82;45.15;;;;;;;16.72;50.01;94019.19;4925573;29;20036;-91
2023/05/03 05:00:26;;;;;;;122.85;48.00;;;;;;;16.72;49.88;94016.44;4918743;28;20051;-94
2023/05/03 05:02:51;;;;;;;110.07;45.75;;;;;;;16.76;50.03;94015.00;4919202;29;20118;-95
2023/05/03 05:05:18;;;;;;;141.95;45.03;;;;;;;16.74;50.13;94020.19;4903833;28;20067;-94
2023/05/03 05:07:45;;;;;;;706.55;95.30;;;;;;;16.78;50.21;94018.00;4915654;29;20096;-89
2023/05/03 05:10:11;;;;;;;212.90;49.70;;;;;;;16.74;49.80;94022.91;4930386;28;20075;-92
2023/05/03 05:12:37;;;;;;;94.75;35.90;;;;;;;16.72;49.62;94014.47;4898573;29;20032;-91
2023/05/03 05:15:03;;;;;;;205.40;48.38;;;;;;;16.66;49.76;94030.06;4914629;29;20086;-93
2023/05/03 05:17:30;;;;;;;290.00;62.78;;;;;;;16.75;49.33;94016.22;4913525;29;20122;-92
2023/05/03 05:19:56;;;;;;;295.38;73.80;;;;;;;16.65;48.78;94025.09;4933744;29;20071;-92
2023/05/03 05:22:21;;;;;;;312.98;71.93;;;;;;;16.55;48.69;94021.75;4914761;28;20464;-92
2023/05/03 05:24:47;;;;;;;194.68;47.10;;;;;;;16.56;48.81;94022.50;4919915;29;20051;-94
2023/05/03 05:27:13;;;;;;;319.17;69.72;;;;;;;16.61;49.10;94025.28;4940898;28;20063;-92
2023/05/03 05:29:38;;;;;;;246.85;52.38;;;;;;;16.73;49.19;94020.69;4917394;29;20048;-91
2023/05/03 05:32:05;;;;;;;316.73;74.90;;;;;;;16.63;49.06;94025.59;4929908;29;20048;-92
2023/05/03 05:34:31;;;;;;;290.17;65.82;;;;;;;16.67;49.39;94025.38;4934241;29;20051;-92
2023/05/03 05:36:56;;;;;;;310.90;67.75;;;;;;;16.74;49.35;94030.38;4966124;28;20047;-94
2023/05/03 05:39:25;;;;;;;331.83;74.00;;;;;;;16.82;49.48;94042.34;4949983;28;20659;-94
2023/05/03 05:41:50;;;;;;;380.85;80.68;;;;;;;16.83;49.21;94037.63;4915947;29;20038;-93
2023/05/03 05:44:17;;;;;;;284.83;102.72;;;;;;;16.96;49.45;94036.00;4935789;28;20043;-92
2023/05/03 05:46:42;;;;;;;196.00;50.38;;;;;;;16.86;49.44;94039.41;4922038;29;20032;-96
2023/05/03 05:49:08;;;;;;;172.05;46.50;;;;;;;16.80;49.76;94033.91;4914297;28;20043;-96
2023/05/03 05:51:33;;;;;;;287.10;65.53;;;;;;;16.85;49.68;94027.72;4922485;29;20063;-96
2023/05/03 05:53:59;;;;;;;262.33;63.22;;;;;;;16.87;49.90;94041.66;4933143;29;20055;-93
2023/05/03 05:56:25;;;;;;;217.15;50.58;;;;;;;16.84;50.13;94039.13;4915741;28;20098;-94
2023/05/03 05:58:50;;;;;;;222.07;65.57;;;;;;;16.88;49.95;94045.88;4915281;29;20130;-90
2023/05/03 06:01:16;;;;;;;208.30;66.22;;;;;;;16.97;49.67;94048.41;4948301;28;20111;-91
2023/05/03 06:03:43;;;;;;;280.90;74.47;;;;;;;16.99;50.07;94045.19;4933436;29;20040;-95
2023/05/03 06:06:08;;;;;;;208.05;67.20;;;;;;;17.01;50.24;94045.47;4930684;28;20264;-93
2023/05/03 06:08:33;;;;;;;241.55;94.25;;;;;;;16.97;49.79;94040.22;4927581;28;20241;-89
2023/05/03 06:10:59;;;;;;;213.93;90.47;;;;;;;17.10;50.09;94042.56;4907660;29;20043;-88
2023/05/03 06:13:25;;;;;;;177.18;72.15;;;;;;;17.13;49.44;94049.75;4937728;28;20476;-89
2023/05/03 06:15:52;;;;;;;215.68;88.30;;;;;;;17.00;49.65;94046.69;4941259;28;20044;-92
2023/05/03 06:18:18;;;;;;;199.60;88.05;;;;;;;17.00;50.02;94044.72;4921784;28;20058;-89
2023/05/03 06:20:47;;;;;;;226.63;100.78;;;;;;;17.01;49.65;94051.69;4949498;28;20048;-91
2023/05/03 06:23:12;;;;;;;232.73;99.25;;;;;;;17.09;49.72;94050.00;4931625;28;20134;-89
2023/05/03 06:25:38;;;;;;;201.52;89.88;;;;;;;17.14;49.92;94054.00;4901352;29;20155;-89
2023/05/03 06:28:03;;;;;;;239.52;102.13;;;;;;;17.06;49.56;94048.25;4900884;28;20039;-88
2023/05/03 06:30:29;;;;;;;231.18;94.18;;;;;;;17.11;49.72;94054.97;4924122;29;20075;-92
2023/05/03 06:32:55;;;;;;;227.23;93.43;;;;;;;17.09;49.86;94055.47;4932706;29;20107;-92
2023/05/03 06:35:21;;;;;;;221.15;95.50;;;;;;;17.16;49.76;94059.72;4904170;28;20499;-91
2023/05/03 06:37:47;;;;;;;227.55;92.90;;;;;;;17.12;50.01;94062.66;4904669;29;20036;-91
2023/05/03 06:40:12;;;;;;;181.32;87.38;;;;;;;17.15;49.91;94058.22;4906418;28;20397;-91
2023/05/03 06:42:37;;;;;;;233.65;97.03;;;;;;;17.10;49.97;94064.41;4906522;29;20046;-92
2023/05/03 06:45:03;;;;;;;243.60;100.32;;;;;;;17.06;49.87;94070.09;4927126;28;20035;-92
2023/05/03 06:47:30;;;;;;;246.10;97.38;;;;;;;17.10;49.96;94067.16;4923485;29;20094;-92
2023/05/03 06:49:55;;;;;;;230.27;99.38;;;;;;;17.11;49.78;94077.56;4916886;29;20063;-93
2023/05/03 06:52:21;;;;;;;209.30;86.72;;;;;;;17.17;49.89;94072.13;4901862;29;20047;-93
2023/05/03 06:54:46;;;;;;;216.52;90.32;;;;;;;17.17;49.88;94074.88;4904937;29;20051;-93
2023/05/03 06:57:12;;;;;;;220.27;90.15;;;;;;;17.20;50.21;94071.16;4902477;28;20044;-89
2023/05/03 06:59:37;;;;;;;257.95;102.50;;;;;;;17.11;49.98;94077.56;4917690;29;20063;-92
2023/05/03 07:02:04;;;;;;;240.65;102.05;;;;;;;17.11;50.08;94076.81;4902448;28;20043;-89
2023/05/03 07:04:30;;;;;;;242.35;102.57;;;;;;;17.13;49.98;94077.81;4914811;29;20106;-92
2023/05/03 07:06:55;;;;;;;245.13;98.38;;;;;;;17.18;49.80;94083.81;4902844;29;20043;-92
2023/05/03 07:09:21;;;;;;;189.93;76.20;;;;;;;17.12;50.36;94086.50;4919228;28;20043;-93
2023/05/03 07:11:49;;;;;;;201.80;79.00;;;;;;;17.16;49.52;94089.00;4917020;29;20047;-91
2023/05/03 07:14:15;;;;;;;193.52;83.65;;;;;;;17.13;49.86;94085.28;4907268;28;20087;-91
2023/05/03 07:16:41;;;;;;;171.52;76.40;;;;;;;17.16;50.06;94086.28;4905684;29;20032;-93
2023/05/03 07:19:08;;;;;;;184.32;85.20;;;;;;;17.11;50.32;94082.28;4914680;28;20442;-93
2023/05/03 07:21:34;;;;;;;207.98;94.15;;;;;;;17.12;50.07;94087.25;4919778;29;20039;-91
2023/05/03 07:23:59;;;;;;;224.23;89.65;;;;;;;17.20;50.07;94086.81;4906107;29;20498;-94
2023/05/03 07:26:25;;;;;;;240.90;97.05;;;;;;;17.18;49.80;94083.81;4910986;28;20387;-92
2023/05/03 07:28:52;;;;;;;198.45;89.28;;;;;;;17.21;49.87;94077.38;4924199;29;20431;-92
2023/05/03 07:31:17;;;;;;;208.85;82.63;;;;;;;17.10;49.96;94084.25;4906670;28;20036;-94
2023/05/03 07:33:44;;;;;;;189.32;68.00;;;;;;;17.09;49.80;94093.72;4926916;29;20027;-91
2023/05/03 07:36:10;;;;;;;224.88;81.30;;;;;;;17.05;49.72;94084.22;4956846;28;20047;-93
2023/05/03 07:38:39;;;;;;;217.80;81.13;;;;;;;17.04;49.56;94093.66;4934574;28;20554;-92
2023/05/03 07:41:06;;;;;;;180.65;75.05;;;;;;;17.15;49.92;94093.72;4897612;28;20494;-90
2023/05/03 07:43:32;;;;;;;191.55;84.30;;;;;;;17.20;49.94;94089.53;4942048;28;20031;-91
2023/05/03 07:45:58;;;;;;;233.68;90.18;;;;;;;17.13;49.94;94086.03;4925757;29;20059;-88
2023/05/03 07:48:23;;;;;;;220.05;84.43;;;;;;;17.24;49.75;94085.38;4924150;28;20043;-89
2023/05/03 07:50:51;;;;;;;243.55;97.05;;;;;;;17.17;50.17;94090.50;4927371;29;20106;-90
2023/05/03 07:53:16;;;;;;;220.68;91.28;;;;;;;17.17;49.91;94077.59;4941263;28;20057;-90
2023/05/03 07:55:52;;;;;;;202.40;95.45;;;;;;;17.21;50.12;94080.13;4957963;28;20043;-92
2023/05/03 07:58:18;;;;;;;208.90;94.55;;;;;;;17.15;49.84;94091.00;4924201;28;20432;-93
2023/05/03 08:00:46;;;;;;;212.93;99.13;;;;;;;17.13;49.92;94096.19;4903872;29;20042;-92
2023/05/03 08:03:12;;;;;;;211.73;91.43;;;;;;;17.24;49.98;94079.91;4916072;29;20116;-92
2023/05/03 08:05:37;;;;;;;208.23;92.63;;;;;;;17.19;49.83;94088.03;4896692;29;20037;-91
2023/05/03 08:08:05;;;;;;;187.25;92.22;;;;;;;17.23;50.05;94083.13;4907215;28;20083;-92
2023/05/03 08:10:38;;;;;;;222.77;97.25;;;;;;;17.20;50.23;94090.28;4913387;29;20040;-92
2023/05/03 08:13:05;;;;;;;237.05;100.88;;;;;;;17.26;50.30;94087.59;4929202;23;20083;-89
2023/05/03 08:15:30;;;;;;;264.55;116.07;;;;;;;17.19;49.98;94085.31;4935390;29;20079;-90
2023/05/03 08:17:56;;;;;;;285.38;144.30;;;;;;;17.20;50.09;94090.28;4944140;29;20047;-89
2023/05/03 08:20:26;;;;;;;335.50;158.50;;;;;;;17.23;50.11;94094.78;4945618;28;20054;-92
2023/05/03 08:22:55;;;;;;;286.98;126.75;;;;;;;17.25;49.83;94092.31;4929773;28;20047;-92
2023/05/03 08:25:24;;;;;;;291.17;131.45;;;;;;;17.20;49.97;94095.75;4924023;28;20102;-88
2023/05/03 08:27:51;;;;;;;308.27;142.20;;;;;;;17.20;50.00;94095.75;4913987;28;20038;-92
2023/05/03 08:30:16;;;;;;;302.85;144.32;;;;;;;17.22;49.95;94101.50;4919217;28;20040;-92
2023/05/03 08:32:42;;;;;;;321.52;151.95;;;;;;;17.26;49.83;94095.81;4910624;29;20646;-91
2023/05/03 08:35:07;;;;;;;334.25;168.18;;;;;;;17.33;49.88;94098.06;4949834;28;20039;-90
2023/05/03 08:37:42;;;;;;;333.33;166.18;;;;;;;17.28;50.09;94098.81;4909559;28;20058;-91
2023/05/03 08:40:12;;;;;;;334.67;154.98;;;;;;;17.33;50.15;94096.09;4954604;28;20054;-89
2023/05/03 08:42:40;;;;;;;338.05;171.32;;;;;;;17.31;50.15;94097.84;4920254;29;20031;-88
2023/05/03 08:45:09;;;;;;;304.02;148.65;;;;;;;17.28;50.04;94107.75;4919633;28;20068;-90
2023/05/03 08:47:40;;;;;;;296.35;149.13;;;;;;;17.28;50.11;94110.47;4933338;28;20074;-94
2023/05/03 08:50:07;;;;;;;344.92;157.35;;;;;;;17.26;50.36;94098.53;4919170;29;20488;-91
2023/05/03 08:52:33;;;;;;;592.92;414.10;;;;;;;17.31;50.05;94108.75;4906803;29;20047;-92
2023/05/03 08:54:58;;;;;;;305.02;138.38;;;;;;;17.38;50.04;94094.63;4905569;29;20036;-91
2023/05/03 08:57:26;;;;;;;309.00;144.65;;;;;;;17.35;49.96;94101.06;4940270;28;20131;-92
2023/05/03 08:59:57;;;;;;;325.30;157.70;;;;;;;17.27;49.91;94089.09;4926922;29;20051;-92
2023/05/03 09:02:23;;;;;;;323.23;151.65;;;;;;;17.31;50.17;94104.06;4914203;29;20040;-93
2023/05/03 09:04:48;;;;;;;290.25;136.90;;;;;;;17.38;50.03;94100.09;4925043;29;20523;-93
2023/05/03 09:07:16;;;;;;;317.00;156.65;;;;;;;17.28;49.92;94102.28;4951097;29;20503;-93
2023/05/03 09:09:46;;;;;;;276.27;137.85;;;;;;;17.33;50.13;94098.81;4923462;29;20040;-93
2023/05/03 09:12:11;;;;;;;285.40;140.57;;;;;;;17.34;50.11;94097.59;4938793;28;20058;-94
2023/05/03 09:14:44;;;;;;;289.30;138.07;;;;;;;17.32;50.34;94102.06;4941405;28;20035;-92
2023/05/03 09:17:22;;;;;;;243.73;117.07;;;;;;;17.42;49.81;94097.91;4939480;28;20050;-89
2023/05/03 09:19:52;;;;;;;271.60;135.80;;;;;;;17.39;50.00;94098.88;4947523;28;20039;-91
2023/05/03 09:22:18;;;;;;;285.42;135.80;;;;;;;17.40;49.71;94101.09;4920638;28;20112;-91
2023/05/03 09:24:55;;;;;;;264.52;126.22;;;;;;;17.38;49.97;94097.38;4938204;28;20031;-91
2023/05/03 09:27:22;;;;;;;560.83;203.15;;;;;;;17.37;49.92;94093.88;4917323;28;20123;-90
2023/05/03 09:29:47;;;;;;;316.48;134.60;;;;;;;17.39;50.27;94102.34;4933101;28;20035;-90
2023/05/03 09:32:15;;;;;;;314.52;133.50;;;;;;;17.50;50.01;94101.69;4924637;28;20084;-91
2023/05/03 09:34:41;;;;;;;285.40;124.55;;;;;;;17.41;50.10;94101.84;4888648;29;20107;-92
2023/05/03 09:37:07;;;;;;;284.13;123.25;;;;;;;17.46;49.94;94090.97;4917853;29;20522;-93
2023/05/03 09:39:35;;;;;;;274.17;115.75;;;;;;;17.43;49.98;94097.41;4921185;29;20043;-92
2023/05/03 09:42:14;;;;;;;240.30;106.28;;;;;;;17.36;49.18;94086.16;4921291;29;20067;-93
2023/05/03 09:44:50;;;;;;;224.88;90.10;;;;;;;17.31;48.82;94093.13;4940752;28;20103;-94
2023/05/03 09:47:38;;;;;;;161.02;68.63;;;;;;;17.33;48.15;94095.34;4922869;28;20075;-95
2023/05/03 09:50:04;;;;;;;157.65;60.10;;;;;;;17.20;47.38;94101.22;5090810;23;20118;-95
2023/05/03 09:52:31;;;;;;;152.68;57.33;;;;;;;17.23;47.17;94099.50;4937488;29;20126;-90
2023/05/03 09:54:56;;;;;;;142.50;53.38;;;;;;;17.14;47.03;94098.44;4950468;29;20102;-91
2023/05/03 09:57:21;;;;;;;123.82;47.38;;;;;;;17.14;47.46;94100.44;4925361;28;20430;-92
2023/05/03 09:59:49;;;;;;;142.75;51.45;;;;;;;17.24;47.80;94087.34;4958843;29;20042;-91
2023/05/03 10:02:15;;;;;;;181.45;66.90;;;;;;;17.23;47.27;94097.53;4921344;28;20047;-91
2023/05/03 10:04:46;;;;;;;158.45;61.08;;;;;;;17.25;47.33;94099.78;4917445;29;20494;-90
2023/05/03 10:07:14;;;;;;;169.63;67.95;;;;;;;17.27;47.70;94097.31;4955365;28;20047;-91
2023/05/03 10:09:45;;;;;;;187.82;66.72;;;;;;;17.26;48.00;94084.88;4917417;29;20035;-89
2023/05/03 10:12:11;;;;;;;;;;;;;;;17.32;48.25;94091.84;4958681;28;20126;-91
2023/05/03 10:14:40;;;;;;;214.10;77.72;;;;;;;17.22;47.49;94084.34;4968589;28;19988;-91
2023/05/03 10:17:08;;;;;;;141.95;59.60;;;;;;;17.24;47.45;94084.63;4920275;28;20043;-90
2023/05/03 10:19:46;;;;;;;121.43;53.17;;;;;;;17.14;47.39;94095.72;4935420;29;20032;-91
2023/05/03 10:22:12;;;;;;;160.68;57.05;;;;;;;17.16;47.50;94080.81;4935027;28;20072;-90
2023/05/03 10:25:00;;;;;;;165.68;53.13;;;;;;;17.16;47.52;94080.81;4919680;29;20047;-91
2023/05/03 10:27:44;;;;;;;149.10;52.10;;;;;;;17.21;47.33;94072.66;4967644;28;20075;-92
2023/05/03 10:30:25;;;;;;;147.15;53.53;;;;;;;17.24;47.36;94068.97;4951820;28;20031;-91
2023/05/03 10:32:50;;;;;;;172.93;69.05;;;;;;;17.29;47.90;94067.50;4970689;28;20624;-92
2023/05/03 10:35:16;;;;;;;209.57;70.57;;;;;;;17.27;47.62;94065.25;4908679;28;20036;-91
2023/05/03 10:37:42;;;;;;;235.70;70.55;;;;;;;17.33;47.81;94073.47;4933614;29;20036;-91
2023/05/03 10:40:09;;;;;;;184.52;58.45;;;;;;;17.34;48.06;94066.78;4918491;29;20025;-92
2023/05/03 10:42:36;;;;;;;224.88;71.80;;;;;;;17.32;48.34;94067.25;4957235;28;20213;-93
2023/05/03 10:45:02;;;;;;;225.13;82.82;;;;;;;17.35;48.21;94065.53;4925823;29;20040;-92
2023/05/03 10:47:28;;;;;;;168.23;69.75;;;;;;;17.44;48.53;94068.84;4921769;29;20550;-91
2023/05/03 10:50:23;;;;;;;151.93;63.75;;;;;;;17.40;48.30;94071.06;4956814;23;20051;-90
2023/05/03 10:52:49;;;;;;;157.50;65.65;;;;;;;17.40;48.35;94062.84;4814946;29;20129;-92
2023/05/03 10:55:17;;;;;;;173.70;70.45;;;;;;;17.41;48.40;94061.63;4828723;29;20076;-92
2023/05/03 10:57:45;;;;;;;169.07;68.50;;;;;;;17.47;48.78;94072.59;4811714;29;20163;-92
2023/05/03 11:00:16;;;;;;;178.20;73.93;;;;;;;17.44;48.79;94068.09;4810655;29;20121;-91
2023/05/03 11:03:12;;;;;;;174.45;70.65;;;;;;;17.51;48.57;94059.44;4841244;29;20054;-94
2023/05/03 11:05:39;;;;;;;155.57;66.53;;;;;;;17.48;48.88;94058.44;4817821;29;20068;-95
2023/05/03 11:08:18;;;;;;;203.13;81.88;;;;;;;17.50;48.47;94066.16;4841566;29;20043;-94
2023/05/03 11:10:45;;;;;;;207.00;94.30;;;;;;;17.51;48.77;94067.66;4824500;29;20126;-93
2023/05/03 11:13:13;;;;;;;270.20;147.48;;;;;;;17.60;48.62;94066.69;4811361;29;20458;-92
2023/05/03 11:15:39;;;;;;;221.98;110.20;;;;;;;17.49;48.52;94070.13;4894283;23;20126;-92
2023/05/03 11:18:12;;;;;;;228.50;113.82;;;;;;;17.52;49.03;94060.19;4896385;29;20043;-92
2023/05/03 11:20:38;;;;;;;246.20;122.38;;;;;;;17.56;48.54;94064.16;4894383;29;20055;-92